Time;durP1;ratioP1;P1;durP2;ratioP2;P2;SDS_P1;SDS_P2;PMS_P1;PMS_P2;Temp;Humidity;BMP_temperature;BMP_pressure;BME280_temperature;BME280_humidity;BME280_pressure;Samples;Min_cycle;Max_cycle;Signal;HPM_P1;HPM_P2
2022/01/15 00:00:23;;;;;;;5.60;2.30;;;8.30;99.90;;;;;;6219483;23;20385;-65
2022/01/15 00:02:51;;;;;;;4.93;2.17;;;8.30;99.90;;;;;;6246693;23;20012;-65
2022/01/15 00:05:19;;;;;;;6.47;1.83;;;8.30;99.90;;;;;;6219451;23;20346;-64
2022/01/15 00:07:48;;;;;;;9.57;1.83;;;8.20;99.90;;;;;;6219127;23;20032;-65
2022/01/15 00:10:20;;;;;;;3.40;1.50;;;8.20;99.90;;;;;;6245961;23;20099;-64
2022/01/15 00:12:47;;;;;;;7.57;2.08;;;8.20;99.90;;;;;;6246580;23;19996;-65
2022/01/15 00:15:22;;;;;;;10.50;2.25;;;8.20;99.90;;;;;;6246277;23;20004;-65
2022/01/15 00:17:55;;;;;;;6.03;1.95;;;8.20;99.90;;;;;;6246137;23;20008;-65
2022/01/15 00:20:23;;;;;;;4.80;2.13;;;8.20;99.90;;;;;;6246216;23;20012;-65
2022/01/15 00:22:52;;;;;;;8.98;1.90;;;8.30;99.90;;;;;;6246113;23;20012;-65
2022/01/15 00:25:22;;;;;;;10.38;2.00;;;8.20;99.90;;;;;;6246268;23;20426;-64
2022/01/15 00:27:51;;;;;;;4.85;1.92;;;8.20;99.90;;;;;;6246134;23;20015;-65
2022/01/15 00:30:18;;;;;;;6.90;1.50;;;8.30;99.90;;;;;;6246124;23;20004;-65
2022/01/15 00:32:46;;;;;;;7.68;1.98;;;8.30;99.90;;;;;;6246544;23;20076;-65
2022/01/15 00:35:14;;;;;;;6.53;1.88;;;8.30;99.90;;;;;;6246119;23;20008;-65
2022/01/15 00:37:42;;;;;;;4.43;2.17;;;8.30;99.90;;;;;;6246153;23;20035;-65
2022/01/15 00:40:15;;;;;;;9.52;2.22;;;8.40;99.90;;;;;;6248321;23;20329;-65
2022/01/15 00:42:43;;;;;;;5.37;1.50;;;8.40;99.90;;;;;;6248542;23;20000;-64
2022/01/15 00:45:18;;;;;;;9.82;1.70;;;8.40;99.90;;;;;;6248035;23;20231;-65
2022/01/15 00:47:45;;;;;;;2.80;1.45;;;8.50;99.90;;;;;;6248011;23;20008;-65
2022/01/15 00:50:11;;;;;;;4.68;1.52;;;8.50;99.90;;;;;;6247960;23;20414;-65
2022/01/15 00:52:38;;;;;;;9.27;1.63;;;8.50;99.90;;;;;;6248335;23;20008;-65
2022/01/15 00:55:06;;;;;;;8.38;1.65;;;8.50;99.90;;;;;;6247919;23;20012;-65
2022/01/15 00:57:33;;;;;;;3.25;1.23;;;8.50;99.90;;;;;;6248806;23;20000;-65
2022/01/15 01:00:00;;;;;;;4.70;1.52;;;8.50;99.90;;;;;;6247817;23;20077;-65
2022/01/15 01:02:26;;;;;;;11.43;1.98;;;8.50;99.90;;;;;;6247719;23;20507;-65
2022/01/15 01:04:53;;;;;;;5.68;1.50;;;8.50;99.90;;;;;;6247872;23;20457;-65
2022/01/15 01:07:23;;;;;;;5.80;2.20;;;8.50;99.90;;;;;;6247854;23;20004;-65
2022/01/15 01:12:57;;;;;;;5.47;1.38;;;8.50;99.90;;;;;;6248638;23;20091;-65
2022/01/15 01:23:21;;;;;;;3.45;1.45;;;8.60;99.90;;;;;;6247714;23;20004;-65
2022/01/15 01:25:53;;;;;;;7.55;1.90;;;8.60;99.90;;;;;;6247547;23;20004;-65
2022/01/15 01:28:30;;;;;;;5.63;1.50;;;8.70;99.90;;;;;;6247707;23;20004;-65
2022/01/15 01:36:13;;;;;;;6.43;1.60;;;8.60;99.90;;;;;;6247965;23;20004;-65
2022/01/15 01:38:52;;;;;;;6.35;1.33;;;8.70;99.90;;;;;;6247414;23;20016;-65
2022/01/15 01:41:22;;;;;;;8.43;1.63;;;8.60;99.90;;;;;;6220772;23;20350;-65
2022/01/15 01:43:57;;;;;;;4.18;1.45;;;8.70;99.90;;;;;;6247869;23;20527;-65
2022/01/15 01:48:51;;;;;;;11.85;2.05;;;8.60;99.90;;;;;;6247642;23;20355;-65
2022/01/15 01:51:36;;;;;;;7.05;1.70;;;8.60;99.90;;;;;;6247443;23;20027;-65
2022/01/15 01:54:13;;;;;;;2.85;1.55;;;8.50;99.90;;;;;;6247442;23;20359;-65
2022/01/15 01:56:40;;;;;;;8.18;1.70;;;8.50;99.90;;;;;;6247339;23;20369;-65
2022/01/15 01:59:10;;;;;;;9.40;2.50;;;8.60;99.90;;;;;;6247138;23;20016;-65
2022/01/15 02:01:40;;;;;;;11.35;2.63;;;8.50;99.90;;;;;;6247388;23;20042;-65
2022/01/15 02:04:06;;;;;;;8.93;2.00;;;8.50;99.90;;;;;;6220583;23;20434;-65
2022/01/15 02:06:36;;;;;;;14.27;2.42;;;8.50;99.90;;;;;;6247715;23;20077;-65
2022/01/15 02:09:06;;;;;;;6.85;2.47;;;8.50;99.90;;;;;;6247256;23;20446;-65
2022/01/15 02:11:32;;;;;;;3.63;1.65;;;8.50;99.90;;;;;;6247226;23;20032;-65
2022/01/15 02:13:59;;;;;;;2.78;1.45;;;8.50;99.90;;;;;;6247230;23;20000;-65
2022/01/15 02:16:25;;;;;;;5.32;1.48;;;8.50;99.90;;;;;;6247323;23;20026;-65
2022/01/15 02:18:55;;;;;;;7.13;1.90;;;8.50;99.90;;;;;;6220266;23;20020;-63
2022/01/15 02:24:07;;;;;;;5.90;1.70;;;8.50;99.90;;;;;;6247129;23;20016;-64
2022/01/15 02:26:37;;;;;;;2.92;1.35;;;8.50;99.90;;;;;;6220242;23;20035;-64
2022/01/15 02:29:05;;;;;;;5.07;1.60;;;8.50;99.90;;;;;;6247121;23;20019;-64
2022/01/15 02:31:32;;;;;;;8.75;1.40;;;8.60;99.90;;;;;;6247043;23;20299;-64
2022/01/15 02:34:02;;;;;;;17.63;3.33;;;8.60;99.90;;;;;;6247370;23;20038;-64
2022/01/15 02:36:31;;;;;;;11.63;1.70;;;8.60;99.90;;;;;;6220193;23;20010;-64
2022/01/15 02:38:59;;;;;;;13.05;1.92;;;8.60;99.90;;;;;;6247225;23;20330;-64
2022/01/15 02:41:31;;;;;;;6.68;1.80;;;8.70;99.90;;;;;;6246801;23;20032;-64
2022/01/15 02:44:00;;;;;;;13.02;2.58;;;8.70;99.90;;;;;;6246914;23;20430;-64
2022/01/15 02:49:00;;;;;;;8.55;1.80;;;8.80;99.90;;;;;;6247214;23;20412;-64
2022/01/15 02:51:32;;;;;;;7.35;2.92;;;8.80;99.90;;;;;;6247153;23;20012;-64
2022/01/15 02:53:59;;;;;;;9.38;2.10;;;8.80;99.90;;;;;;6246659;23;20083;-64
2022/01/15 02:56:35;;;;;;;11.88;2.53;;;8.90;99.90;;;;;;6247217;23;20490;-64
2022/01/15 02:59:05;;;;;;;6.40;1.67;;;8.80;99.90;;;;;;6219790;23;20358;-64
2022/01/15 03:01:32;;;;;;;10.43;2.35;;;8.80;99.90;;;;;;6219620;23;20001;-64
2022/01/15 03:03:59;;;;;;;23.52;2.35;;;8.90;99.90;;;;;;6246548;23;20524;-64
2022/01/15 03:06:26;;;;;;;6.57;2.30;;;8.90;99.90;;;;;;6246719;23;20000;-64
2022/01/15 03:08:54;;;;;;;11.05;1.77;;;8.90;99.90;;;;;;6246477;23;20087;-64
2022/01/15 03:11:22;;;;;;;3.92;1.13;;;8.90;99.90;;;;;;6246588;23;20334;-64
2022/01/15 03:13:49;;;;;;;9.20;1.70;;;8.90;99.90;;;;;;6246999;23;20019;-65
2022/01/15 03:16:19;;;;;;;11.63;2.80;;;8.90;99.90;;;;;;6219845;23;20007;-64
2022/01/15 03:18:46;;;;;;;5.47;1.83;;;8.90;99.90;;;;;;6246512;23;20074;-65
2022/01/15 03:21:13;;;;;;;15.52;2.42;;;8.80;99.90;;;;;;6246414;23;20082;-64
2022/01/15 03:23:40;;;;;;;15.20;2.67;;;8.90;99.90;;;;;;6246926;23;20012;-64
2022/01/15 03:26:08;;;;;;;5.35;1.98;;;8.80;99.90;;;;;;6246480;23;19996;-64
2022/01/15 03:28:35;;;;;;;9.02;2.45;;;8.80;99.90;;;;;;6246459;23;20438;-64
2022/01/15 03:31:02;;;;;;;7.53;2.05;;;8.80;99.90;;;;;;6219610;23;20027;-64
2022/01/15 03:33:29;;;;;;;9.30;1.90;;;8.80;99.90;;;;;;6246422;23;20489;-64
2022/01/15 03:35:56;;;;;;;9.93;2.03;;;8.70;99.90;;;;;;6219585;23;20358;-64
2022/01/15 03:38:23;;;;;;;5.88;1.60;;;8.80;99.90;;;;;;6246607;23;20016;-64
2022/01/15 03:40:52;;;;;;;6.78;1.70;;;8.70;99.90;;;;;;6246504;23;20000;-65
2022/01/15 03:43:19;;;;;;;9.65;1.95;;;8.90;99.90;;;;;;6246471;23;20011;-64
2022/01/15 03:45:45;;;;;;;7.57;2.00;;;8.90;99.90;;;;;;6246716;23;20023;-64
2022/01/15 03:48:12;;;;;;;4.82;2.13;;;8.90;99.90;;;;;;6246168;23;20004;-64
2022/01/15 03:50:39;;;;;;;4.57;1.38;;;8.90;99.90;;;;;;6246316;23;20020;-64
2022/01/15 03:53:05;;;;;;;13.68;1.90;;;9.00;99.90;;;;;;6246708;23;20434;-64
2022/01/15 03:55:32;;;;;;;6.70;1.45;;;9.00;99.90;;;;;;6246224;23;20342;-65
2022/01/15 03:58:00;;;;;;;8.48;2.90;;;9.00;99.90;;;;;;6246239;23;20000;-65
2022/01/15 04:00:27;;;;;;;25.98;2.97;;;8.90;99.90;;;;;;6246111;23;20083;-65
2022/01/15 04:02:55;;;;;;;10.35;2.33;;;8.90;99.90;;;;;;6246352;23;20009;-64
2022/01/15 04:05:23;;;;;;;10.32;2.10;;;8.90;99.90;;;;;;6246289;23;20004;-65
2022/01/15 04:07:50;;;;;;;10.80;2.63;;;9.00;99.90;;;;;;6246199;23;20004;-65
2022/01/15 04:10:17;;;;;;;20.65;2.47;;;9.00;99.90;;;;;;6245937;23;20020;-65
2022/01/15 04:12:44;;;;;;;7.07;1.55;;;9.00;99.90;;;;;;6220271;23;20010;-65
2022/01/15 04:15:13;;;;;;;5.53;1.50;;;9.10;99.90;;;;;;6248449;23;20005;-65
2022/01/15 04:17:46;;;;;;;5.18;1.70;;;9.10;99.90;;;;;;6248378;23;20032;-65
2022/01/15 04:20:18;;;;;;;21.65;2.75;;;9.20;99.90;;;;;;6248325;23;20091;-65
2022/01/15 04:22:45;;;;;;;12.88;2.03;;;9.10;99.90;;;;;;6221586;23;20008;-65
2022/01/15 04:25:12;;;;;;;6.15;2.00;;;9.10;99.90;;;;;;6248207;23;20310;-65
2022/01/15 04:27:44;;;;;;;8.57;2.33;;;9.10;99.90;;;;;;6248552;23;20004;-65
2022/01/15 04:30:12;;;;;;;12.07;2.50;;;9.10;99.90;;;;;;6248314;23;20004;-65
2022/01/15 04:32:40;;;;;;;5.28;1.42;;;9.10;99.90;;;;;;6248190;23;20012;-65
2022/01/15 04:35:07;;;;;;;17.23;3.30;;;9.10;99.90;;;;;;6248488;23;20040;-65
2022/01/15 04:37:38;;;;;;;9.07;2.50;;;9.00;99.90;;;;;;6247985;23;20031;-65
2022/01/15 04:40:08;;;;;;;6.88;1.70;;;8.90;99.90;;;;;;6248125;23;20449;-65
2022/01/15 04:42:35;;;;;;;9.48;2.28;;;9.00;99.90;;;;;;6248079;23;20007;-65
2022/01/15 04:45:03;;;;;;;18.23;2.13;;;8.90;99.90;;;;;;6248001;23;20015;-65
2022/01/15 04:47:37;;;;;;;7.60;2.10;;;8.80;99.90;;;;;;6248016;23;20004;-65
2022/01/15 04:50:08;;;;;;;9.85;1.52;;;8.90;99.90;;;;;;6248031;23;20004;-65
2022/01/15 04:52:36;;;;;;;10.68;2.30;;;8.80;99.90;;;;;;6248001;23;20423;-65
2022/01/15 04:55:05;;;;;;;7.15;1.90;;;8.80;99.90;;;;;;6221670;23;20008;-65
2022/01/15 04:57:32;;;;;;;12.15;2.25;;;8.90;99.90;;;;;;6221298;23;20019;-65
2022/01/15 04:59:59;;;;;;;6.50;2.03;;;8.90;99.90;;;;;;6247829;23;20090;-65
2022/01/15 05:02:26;;;;;;;4.40;1.70;;;8.90;99.90;;;;;;6221005;23;20373;-65
2022/01/15 05:04:52;;;;;;;7.28;2.35;;;8.90;99.90;;;;;;6247872;23;20011;-64
2022/01/15 05:07:21;;;;;;;9.02;2.33;;;8.90;99.90;;;;;;6248238;23;20102;-64
2022/01/15 05:09:48;;;;;;;8.00;2.13;;;8.90;99.90;;;;;;6247574;23;20016;-65
2022/01/15 05:12:38;;;;;;;5.05;2.20;;;9.00;99.90;;;;;;6248060;23;20001;-64
2022/01/15 05:15:06;;;;;;;9.15;2.05;;;9.10;99.90;;;;;;6248171;23;20369;-65
2022/01/15 05:17:32;;;;;;;9.55;2.83;;;9.20;99.90;;;;;;6247742;23;20441;-65
2022/01/15 05:19:59;;;;;;;9.43;2.17;;;9.20;99.90;;;;;;6220797;23;20020;-65
2022/01/15 05:22:26;;;;;;;12.48;2.42;;;9.30;99.90;;;;;;6248056;23;20314;-65
2022/01/15 05:24:52;;;;;;;14.80;2.35;;;9.30;99.90;;;;;;6247407;23;20028;-66
2022/01/15 05:27:19;;;;;;;7.18;1.85;;;9.30;99.90;;;;;;6247633;23;20031;-66
2022/01/15 05:29:45;;;;;;;8.32;2.28;;;9.20;99.90;;;;;;6247735;23;20326;-66
2022/01/15 05:32:12;;;;;;;13.23;2.08;;;9.20;99.90;;;;;;6247661;23;20000;-66
2022/01/15 05:34:39;;;;;;;9.85;1.67;;;9.20;99.90;;;;;;6247544;23;20012;-66
2022/01/15 05:37:05;;;;;;;10.95;3.08;;;9.20;99.90;;;;;;6247577;23;20031;-66
2022/01/15 05:39:32;;;;;;;5.38;2.28;;;9.20;99.90;;;;;;6248505;23;20081;-66
2022/01/15 05:41:58;;;;;;;3.45;1.98;;;9.20;99.90;;;;;;6220819;23;20005;-66
2022/01/15 05:44:25;;;;;;;12.10;2.72;;;9.10;99.90;;;;;;6247734;23;20008;-66
2022/01/15 05:46:51;;;;;;;3.45;2.25;;;9.10;99.90;;;;;;6247578;23;20023;-66
2022/01/15 05:49:18;;;;;;;6.85;2.45;;;9.10;99.90;;;;;;6221847;23;20018;-66
2022/01/15 05:51:45;;;;;;;15.45;2.78;;;9.00;99.90;;;;;;6247569;23;20434;-66
2022/01/15 05:54:11;;;;;;;5.00;1.92;;;8.90;99.90;;;;;;6247340;23;20008;-66
2022/01/15 05:56:41;;;;;;;6.35;3.00;;;9.00;99.90;;;;;;6247342;23;20011;-66
2022/01/15 05:59:09;;;;;;;10.55;2.25;;;8.90;99.90;;;;;;6247386;23;20016;-66
2022/01/15 06:01:37;;;;;;;11.68;1.90;;;8.90;99.90;;;;;;6247416;23;20001;-66
2022/01/15 06:04:05;;;;;;;11.27;2.38;;;8.90;99.90;;;;;;6247144;23;20016;-66
2022/01/15 06:06:32;;;;;;;22.40;2.97;;;8.80;99.90;;;;;;6247374;23;20000;-66
2022/01/15 06:08:58;;;;;;;11.02;2.72;;;8.80;99.90;;;;;;6246995;23;20016;-66
2022/01/15 06:11:26;;;;;;;7.72;2.95;;;8.70;99.90;;;;;;6247252;23;20032;-66
2022/01/15 06:13:53;;;;;;;12.20;2.65;;;8.70;99.90;;;;;;6247587;23;20047;-66
2022/01/15 06:16:20;;;;;;;9.80;2.78;;;8.70;99.90;;;;;;6220878;23;20846;-66
2022/01/15 06:18:50;;;;;;;13.95;2.65;;;8.70;99.90;;;;;;6219810;23;20346;-66
2022/01/15 06:21:17;;;;;;;6.82;2.20;;;8.70;99.90;;;;;;6247103;23;20028;-66
2022/01/15 06:23:44;;;;;;;14.05;3.47;;;8.70;99.90;;;;;;6247145;23;20092;-66
2022/01/15 06:26:12;;;;;;;11.73;2.13;;;8.70;99.90;;;;;;6247207;23;20383;-66
2022/01/15 06:28:40;;;;;;;16.02;2.95;;;8.70;99.90;;;;;;6247114;23;20031;-66
2022/01/15 06:31:07;;;;;;;11.32;2.55;;;8.80;99.90;;;;;;6246954;23;20330;-66
2022/01/15 06:33:33;;;;;;;8.18;2.67;;;8.80;99.90;;;;;;6247018;23;20005;-66
2022/01/15 06:36:00;;;;;;;8.60;2.70;;;8.80;99.90;;;;;;6246554;23;20072;-66
2022/01/15 06:38:27;;;;;;;15.82;3.17;;;8.80;99.90;;;;;;6246984;23;20495;-66
2022/01/15 06:40:54;;;;;;;14.85;3.13;;;8.80;99.90;;;;;;6246824;23;20311;-66
2022/01/15 06:43:21;;;;;;;10.90;2.60;;;8.70;99.90;;;;;;6246985;23;20058;-67
2022/01/15 06:45:48;;;;;;;12.27;2.42;;;8.80;99.90;;;;;;6246876;23;20004;-66
2022/01/15 06:48:15;;;;;;;10.93;2.38;;;8.70;99.90;;;;;;6246848;23;20490;-66
2022/01/15 06:50:43;;;;;;;14.50;3.08;;;8.70;99.90;;;;;;6246786;23;20512;-66
2022/01/15 06:53:11;;;;;;;10.23;3.10;;;8.70;99.90;;;;;;6219994;23;20067;-66
2022/01/15 06:55:38;;;;;;;12.70;3.08;;;8.70;99.90;;;;;;6246892;23;20039;-66
2022/01/15 06:58:05;;;;;;;19.58;3.45;;;8.80;99.90;;;;;;6246614;23;20000;-66
2022/01/15 07:00:32;;;;;;;12.52;3.00;;;8.80;99.90;;;;;;6246547;23;20008;-66
2022/01/15 07:03:02;;;;;;;8.27;2.65;;;8.90;99.90;;;;;;6246621;23;20079;-66
2022/01/15 07:05:30;;;;;;;16.38;3.22;;;8.80;99.90;;;;;;6246562;23;20038;-66
2022/01/15 07:07:57;;;;;;;8.32;3.20;;;8.80;99.90;;;;;;6246566;23;20003;-66
2022/01/15 07:10:25;;;;;;;8.30;2.72;;;8.90;99.90;;;;;;6246730;23;20008;-67
2022/01/15 07:12:52;;;;;;;13.68;2.80;;;9.00;99.90;;;;;;6246578;23;20087;-66
2022/01/15 07:15:20;;;;;;;17.40;3.83;;;9.00;99.90;;;;;;6246719;23;20075;-66
2022/01/15 07:17:48;;;;;;;10.82;3.80;;;9.10;99.90;;;;;;6219723;23;20004;-66
2022/01/15 07:20:18;;;;;;;10.07;3.72;;;9.20;99.90;;;;;;6246485;23;20066;-65
2022/01/15 07:22:46;;;;;;;12.20;2.80;;;9.20;99.90;;;;;;6219557;23;20442;-67
2022/01/15 07:25:13;;;;;;;14.73;3.38;;;9.20;99.90;;;;;;6246913;23;20007;-66
2022/01/15 07:27:39;;;;;;;18.30;3.10;;;9.30;99.90;;;;;;6219889;23;20015;-66
2022/01/15 07:30:08;;;;;;;6.43;2.45;;;9.40;99.90;;;;;;6246793;23;20368;-66
2022/01/15 07:32:36;;;;;;;11.23;2.72;;;9.60;99.90;;;;;;6246320;23;20054;-66
2022/01/15 07:35:04;;;;;;;12.45;3.45;;;9.70;99.90;;;;;;6246478;23;19996;-66
2022/01/15 07:37:31;;;;;;;7.85;2.90;;;9.80;99.90;;;;;;6246307;23;20012;-66
2022/01/15 07:39:59;;;;;;;8.40;3.13;;;9.90;99.90;;;;;;6246692;23;20429;-66
2022/01/15 07:42:28;;;;;;;15.48;2.65;;;10.00;99.90;;;;;;6246141;23;20058;-65
2022/01/15 07:44:55;;;;;;;12.85;3.22;;;10.10;99.90;;;;;;6246309;23;20004;-65
2022/01/15 07:47:22;;;;;;;12.13;3.78;;;10.30;99.90;;;;;;6246249;23;20004;-66
2022/01/15 07:49:49;;;;;;;12.23;3.45;;;10.30;99.90;;;;;;6246273;23;20019;-66
2022/01/15 07:52:19;;;;;;;22.25;4.32;;;10.30;99.90;;;;;;6246811;23;20000;-66
2022/01/15 07:54:46;;;;;;;11.25;3.38;;;10.40;99.90;;;;;;6246551;23;20008;-65
2022/01/15 07:57:12;;;;;;;12.07;4.13;;;10.50;99.90;;;;;;6245968;23;20109;-66
2022/01/15 07:59:39;;;;;;;14.55;3.28;;;10.60;99.90;;;;;;6246073;23;20083;-66
2022/01/15 08:02:07;;;;;;;15.23;2.95;;;10.70;99.90;;;;;;6246178;23;20079;-66
2022/01/15 08:04:34;;;;;;;13.27;3.55;;;10.80;99.90;;;;;;6246218;23;20000;-66
2022/01/15 08:07:01;;;;;;;6.70;2.22;;;10.80;99.90;;;;;;6246170;23;20421;-66
2022/01/15 08:09:30;;;;;;;14.35;3.35;;;10.90;99.90;;;;;;6245928;23;20023;-66
2022/01/15 08:11:57;;;;;;;6.45;2.20;;;11.00;99.90;;;;;;6219280;23;20004;-66
2022/01/15 08:14:26;;;;;;;8.48;2.63;;;11.10;99.90;;;;;;6219279;23;20058;-66
2022/01/15 08:16:53;;;;;;;21.77;3.42;;;11.10;99.90;;;;;;6246081;23;20008;-66
2022/01/15 08:19:20;;;;;;;9.70;2.67;;;11.20;99.90;;;;;;6219273;23;20020;-67
2022/01/15 08:21:47;;;;;;;20.35;4.30;;;11.30;99.90;;;;;;6219525;23;20441;-67
2022/01/15 08:24:14;;;;;;;13.98;3.03;;;11.30;99.90;;;;;;6246229;23;20004;-66
2022/01/15 08:26:41;;;;;;;12.40;2.60;;;11.40;99.90;;;;;;6246009;23;20019;-66
2022/01/15 08:29:07;;;;;;;12.52;4.28;;;11.50;99.90;;;;;;6219156;23;20016;-66
2022/01/15 08:31:34;;;;;;;9.13;2.92;;;11.60;99.90;;;;;;6245979;23;20004;-66
2022/01/15 08:34:01;;;;;;;13.52;2.80;;;11.70;99.90;;;;;;6245944;23;20063;-66
2022/01/15 08:36:28;;;;;;;4.10;2.40;;;11.90;99.90;;;;;;6246202;23;20031;-66
2022/01/15 08:38:55;;;;;;;6.40;2.50;;;12.20;99.90;;;;;;6246122;23;20016;-66
2022/01/15 08:41:25;;;;;;;8.00;2.60;;;12.50;99.90;;;;;;6246097;23;20027;-66
2022/01/15 08:43:52;;;;;;;10.77;1.70;;;12.70;99.90;;;;;;6246021;23;20070;-67
2022/01/15 08:46:20;;;;;;;14.18;1.58;;;12.90;99.90;;;;;;6245978;23;20008;-66
2022/01/15 08:48:47;;;;;;;6.78;1.70;;;12.90;99.90;;;;;;6246027;23;20008;-66
2022/01/15 08:51:15;;;;;;;12.75;1.77;;;13.00;99.90;;;;;;6246024;23;20470;-66
2022/01/15 08:53:42;;;;;;;13.05;2.45;;;13.10;99.90;;;;;;6246081;23;20069;-66
2022/01/15 08:56:09;;;;;;;8.60;1.83;;;13.20;99.90;;;;;;6246089;23;20418;-66
2022/01/15 08:58:36;;;;;;;3.92;1.48;;;13.30;99.90;;;;;;6219110;23;20015;-66
2022/01/15 09:01:04;;;;;;;3.10;1.20;;;13.40;99.90;;;;;;6221157;23;20004;-66
2022/01/15 09:03:35;;;;;;;1.65;0.70;;;13.40;99.90;;;;;;6248144;23;20010;-66
2022/01/15 09:06:02;;;;;;;5.05;0.73;;;13.50;99.90;;;;;;6247776;23;20008;-66
2022/01/15 09:08:29;;;;;;;5.90;1.67;;;13.50;99.90;;;;;;6247671;23;20389;-66
2022/01/15 09:10:56;;;;;;;8.43;1.63;;;13.50;99.90;;;;;;6247677;23;20103;-66
2022/01/15 09:13:23;;;;;;;2.65;1.10;;;13.60;99.90;;;;;;6247709;23;20036;-66
2022/01/15 09:15:50;;;;;;;5.03;1.42;;;13.70;99.90;;;;;;6247763;23;20019;-66
2022/01/15 09:18:19;;;;;;;3.45;1.10;;;13.70;99.90;;;;;;6248097;23;19996;-66
2022/01/15 09:20:47;;;;;;;1.20;0.70;;;13.70;99.90;;;;;;6247720;23;20012;-66
2022/01/15 09:23:15;;;;;;;0.70;0.52;;;13.80;99.90;;;;;;6248112;23;19996;-66
2022/01/15 09:25:41;;;;;;;6.72;0.40;;;13.80;99.90;;;;;;6247627;23;20011;-66
2022/01/15 09:30:55;;;;;;;9.10;0.80;;;13.90;99.90;;;;;;6247536;23;20012;-66
2022/01/15 09:33:22;;;;;;;5.00;1.75;;;13.90;99.90;;;;;;6247680;23;20318;-66
2022/01/15 09:35:52;;;;;;;2.70;1.13;;;13.90;99.90;;;;;;6247567;23;20012;-66
2022/01/15 09:38:21;;;;;;;3.53;0.70;;;14.00;99.90;;;;;;6247742;23;20053;-66
2022/01/15 09:40:48;;;;;;;6.10;0.75;;;14.00;99.90;;;;;;6247643;23;20008;-66
2022/01/15 09:43:16;;;;;;;1.75;0.52;;;14.10;99.90;;;;;;6220800;23;20006;-66
2022/01/15 09:45:44;;;;;;;8.93;1.63;;;14.10;99.90;;;;;;6247318;23;20012;-66
2022/01/15 09:48:11;;;;;;;2.78;1.17;;;14.20;99.90;;;;;;6247534;23;20418;-66
2022/01/15 09:50:42;;;;;;;4.03;1.95;;;14.20;99.90;;;;;;6247788;23;20012;-66
2022/01/15 09:53:13;;;;;;;2.33;0.80;;;14.30;99.90;;;;;;6248015;23;20457;-66
2022/01/15 09:55:40;;;;;;;4.30;0.82;;;14.30;99.90;;;;;;6248085;23;20015;-67
2022/01/15 09:58:10;;;;;;;3.45;0.88;;;14.30;99.90;;;;;;6247754;23;20085;-66
2022/01/15 10:00:36;;;;;;;3.08;0.65;;;14.40;99.90;;;;;;6247563;23;20012;-66
2022/01/15 10:03:03;;;;;;;2.35;0.70;;;14.40;99.90;;;;;;6247390;23;20381;-66
2022/01/15 10:05:33;;;;;;;2.92;0.50;;;14.40;99.90;;;;;;6247700;23;20016;-66
2022/01/15 10:08:02;;;;;;;2.85;0.50;;;14.40;99.90;;;;;;6246838;23;20012;-66
2022/01/15 10:10:32;;;;;;;5.03;0.82;;;14.40;99.90;;;;;;6247176;23;20348;-66
2022/01/15 10:13:23;;;;;;;1.35;0.63;;;14.40;99.90;;;;;;6247569;23;20035;-66
2022/01/15 10:15:59;;;;;;;2.15;0.73;;;14.40;99.90;;;;;;6247147;23;20016;-66
2022/01/15 10:18:35;;;;;;;5.00;0.57;;;14.50;99.90;;;;;;6220336;23;20008;-67
2022/01/15 10:21:18;;;;;;;0.73;0.50;;;14.50;99.90;;;;;;6247082;23;20012;-66
2022/01/15 10:23:52;;;;;;;6.50;0.57;;;14.60;99.90;;;;;;6220996;23;20108;-66
2022/01/15 10:26:22;;;;;;;2.20;0.32;;;14.60;99.90;;;;;;6247094;23;20008;-66
2022/01/15 10:28:56;;;;;;;2.42;0.55;;;14.60;99.90;;;;;;6247206;23;20496;-66
2022/01/15 10:31:26;;;;;;;1.88;0.35;;;14.60;99.90;;;;;;6247677;23;20015;-66
2022/01/15 10:34:22;;;;;;;3.28;0.80;;;14.60;99.90;;;;;;6246976;23;20010;-66
2022/01/15 10:36:49;;;;;;;3.03;0.70;;;14.60;99.90;;;;;;6247423;23;20000;-66
2022/01/15 10:39:18;;;;;;;1.60;0.60;;;14.60;99.90;;;;;;6246811;23;20020;-66
2022/01/15 10:41:47;;;;;;;0.65;0.65;;;14.70;99.90;;;;;;6247203;23;20373;-66
2022/01/15 10:44:35;;;;;;;9.32;1.75;;;14.70;99.90;;;;;;6247027;23;20432;-66
2022/01/15 10:47:15;;;;;;;2.60;1.00;;;14.80;99.90;;;;;;6246825;23;20057;-67
2022/01/15 10:49:44;;;;;;;2.05;1.02;;;14.80;99.90;;;;;;6220054;23;20011;-67
2022/01/15 10:52:20;;;;;;;2.78;0.40;;;14.90;99.90;;;;;;6246785;23;20075;-67
2022/01/15 10:55:12;;;;;;;1.00;0.50;;;14.90;99.90;;;;;;6246855;23;20004;-66
2022/01/15 10:57:57;;;;;;;1.73;0.60;;;14.90;99.90;;;;;;6219910;23;20012;-66
2022/01/15 11:00:36;;;;;;;0.73;0.60;;;14.90;99.90;;;;;;6246457;23;20020;-65
2022/01/15 11:03:12;;;;;;;4.75;0.50;;;14.90;99.90;;;;;;6246708;23;20034;-65
2022/01/15 11:05:42;;;;;;;1.13;0.60;;;15.00;99.90;;;;;;6247024;23;20011;-66
2022/01/15 11:08:26;;;;;;;0.45;0.45;;;15.00;99.90;;;;;;6246636;23;20066;-65
2022/01/15 11:11:08;;;;;;;0.37;0.37;;;15.00;99.90;;;;;;6246665;23;20016;-65
2022/01/15 11:13:48;;;;;;;0.55;0.55;;;15.00;99.90;;;;;;6246586;23;20004;-66
2022/01/15 11:16:16;;;;;;;0.43;0.43;;;15.00;99.90;;;;;;6246943;23;20008;-66
2022/01/15 11:18:44;;;;;;;1.20;0.60;;;15.00;99.90;;;;;;6246440;23;20015;-65
2022/01/15 11:21:13;;;;;;;11.45;1.05;;;15.00;99.90;;;;;;6246520;23;20011;-66
2022/01/15 11:23:42;;;;;;;1.80;0.40;;;15.00;99.90;;;;;;6246407;23;20012;-66
2022/01/15 11:26:15;;;;;;;3.85;0.70;;;15.10;99.90;;;;;;6246534;23;20004;-66
2022/01/15 11:28:43;;;;;;;1.35;0.60;;;15.10;99.90;;;;;;6246487;23;20062;-66
2022/01/15 11:31:22;;;;;;;2.17;0.88;;;15.10;99.90;;;;;;6219906;23;20004;-66
2022/01/15 11:33:55;;;;;;;1.95;1.02;;;15.10;99.90;;;;;;6246570;23;20057;-66
2022/01/15 11:36:33;;;;;;;1.15;1.05;;;15.10;99.90;;;;;;6246786;23;20000;-66
2022/01/15 11:39:04;;;;;;;1.05;0.60;;;15.10;99.90;;;;;;6246717;23;20338;-65
2022/01/15 11:41:30;;;;;;;0.88;0.60;;;15.10;99.90;;;;;;6219621;23;20012;-66
2022/01/15 11:44:01;;;;;;;1.98;0.80;;;15.20;99.90;;;;;;6246727;23;20012;-66
2022/01/15 11:46:47;;;;;;;1.10;0.40;;;15.10;99.90;;;;;;6246716;23;20079;-65
2022/01/15 11:49:22;;;;;;;0.63;0.30;;;15.10;99.90;;;;;;6246781;23;20028;-66
2022/01/15 11:51:50;;;;;;;2.50;0.70;;;15.10;99.90;;;;;;6246768;23;20007;-66
2022/01/15 11:54:17;;;;;;;1.33;0.93;;;15.10;99.90;;;;;;6246571;23;20015;-66
2022/01/15 11:56:44;;;;;;;0.65;0.40;;;15.10;99.90;;;;;;6246248;23;20050;-66
2022/01/15 11:59:26;;;;;;;2.13;0.70;;;15.10;99.90;;;;;;6246315;23;20015;-65
2022/01/15 12:01:55;;;;;;;1.20;0.70;;;15.20;99.90;;;;;;6246639;23;20418;-66
2022/01/15 12:04:24;;;;;;;1.10;0.43;;;15.10;99.90;;;;;;6246175;23;20126;-66
2022/01/15 12:07:19;;;;;;;0.68;0.40;;;15.10;99.90;;;;;;6246585;23;20011;-66
2022/01/15 12:09:46;;;;;;;;;;;15.20;99.90;;;;;;6226790;22;20021;-66
2022/01/15 12:12:35;;;;;;;0.47;0.30;;;15.10;99.90;;;;;;6214353;23;20369;-65
2022/01/15 12:15:06;;;;;;;2.10;0.73;;;15.10;99.90;;;;;;6216226;23;20330;-65
2022/01/15 12:17:42;;;;;;;1.05;0.50;;;15.10;99.90;;;;;;6216149;23;20253;-65
2022/01/15 12:20:20;;;;;;;3.30;0.50;;;15.10;99.90;;;;;;6215650;23;20025;-64
2022/01/15 12:22:50;;;;;;;9.02;0.70;;;15.10;99.90;;;;;;6215734;23;20004;-65
2022/01/15 12:25:19;;;;;;;1.25;0.60;;;15.10;99.90;;;;;;6215929;23;20005;-64
2022/01/15 12:28:17;;;;;;;1.30;0.85;;;15.10;99.90;;;;;;6216246;23;20001;-65
2022/01/15 12:30:48;;;;;;;0.40;0.40;;;15.00;99.90;;;;;;6094933;23;20455;-65
2022/01/15 12:33:17;;;;;;;1.83;1.05;;;15.00;99.90;;;;;;6095291;23;20011;-65
2022/01/15 12:35:47;;;;;;;0.47;0.30;;;15.00;99.90;;;;;;6096778;23;20014;-65
2022/01/15 12:38:26;;;;;;;0.63;0.47;;;15.00;99.90;;;;;;6096737;23;20006;-64
2022/01/15 12:40:55;;;;;;;1.25;0.63;;;15.00;99.90;;;;;;6096909;23;20401;-66
2022/01/15 12:43:28;;;;;;;0.68;0.38;;;15.00;99.90;;;;;;6096753;23;20013;-71
2022/01/15 12:46:02;;;;;;;1.15;0.20;;;15.00;99.90;;;;;;6096854;23;20018;-75
2022/01/15 12:48:30;;;;;;;1.67;0.47;;;15.00;99.90;;;;;;6097083;23;20025;-70
2022/01/15 12:50:59;;;;;;;0.88;0.65;;;15.00;99.90;;;;;;6096708;23;20392;-69
2022/01/15 12:53:29;;;;;;;1.65;0.60;;;15.00;99.90;;;;;;6096665;23;20503;-69
2022/01/15 12:56:00;;;;;;;1.25;0.45;;;15.00;99.90;;;;;;6096682;23;20010;-69
2022/01/15 12:58:28;;;;;;;4.00;0.60;;;15.00;99.90;;;;;;6096558;23;20053;-68
2022/01/15 13:00:55;;;;;;;1.98;0.60;;;15.00;99.90;;;;;;6096803;23;20080;-69
2022/01/15 13:03:25;;;;;;;3.83;0.85;;;15.00;99.90;;;;;;6096541;23;20014;-69
2022/01/15 13:05:57;;;;;;;0.77;0.43;;;15.00;99.90;;;;;;6096468;23;20013;-69
2022/01/15 13:08:37;;;;;;;2.75;0.57;;;15.00;99.90;;;;;;6216229;23;20016;-69
2022/01/15 13:11:20;;;;;;;2.03;0.75;;;14.90;99.90;;;;;;6217890;23;20005;-68
2022/01/15 13:14:07;;;;;;;1.88;0.68;;;14.90;99.90;;;;;;6217452;23;20019;-70
2022/01/15 13:16:34;;;;;;;0.63;0.47;;;14.90;99.90;;;;;;6217260;23;20071;-71
2022/01/15 13:19:04;;;;;;;0.63;0.63;;;14.90;99.90;;;;;;6217661;23;20075;-71
2022/01/15 13:21:35;;;;;;;1.08;0.77;;;14.90;99.90;;;;;;6217485;23;20004;-70
2022/01/15 13:24:14;;;;;;;3.50;0.90;;;14.90;99.90;;;;;;6217458;23;20004;-71
2022/01/15 13:26:45;;;;;;;2.03;0.85;;;14.90;99.90;;;;;;6217368;23;20016;-72
2022/01/15 13:29:16;;;;;;;1.60;0.85;;;14.80;99.90;;;;;;6217360;23;20079;-71